Time;durP1;ratioP1;P1;durP2;ratioP2;P2;SDS_P1;SDS_P2;PMS_P1;PMS_P2;Temp;Humidity;BMP_temperature;BMP_pressure;BME280_temperature;BME280_humidity;BME280_pressure;Samples;Min_cycle;Max_cycle;Signal;HPM_P1;HPM_P2
2022/07/14 00:01:37;;;;;;;11.75;5.13;;;;;;;19.84;66.82;100297.09;5052778;28;20674;-77
2022/07/14 00:04:06;;;;;;;8.27;3.75;;;;;;;19.74;67.77;100292.63;5050099;28;20250;-78
2022/07/14 00:06:32;;;;;;;17.45;6.03;;;;;;;19.59;68.20;100293.81;5052139;28;20039;-93
2022/07/14 00:08:58;;;;;;;6.57;4.10;;;;;;;19.37;68.82;100312.00;5054227;28;20025;-94
2022/07/14 00:11:24;;;;;;;9.30;3.95;;;;;;;19.47;69.10;100310.97;5052620;28;20060;-76
2022/07/14 00:13:50;;;;;;;6.82;4.65;;;;;;;19.41;69.01;100310.25;5049990;28;20036;-76
2022/07/14 00:16:15;;;;;;;11.05;3.92;;;;;;;19.51;68.93;100309.19;5050076;28;20048;-76
2022/07/14 00:18:43;;;;;;;7.70;3.88;;;;;;;19.64;68.41;100309.47;5049976;28;20408;-76
2022/07/14 00:21:17;;;;;;;12.70;4.57;;;;;;;19.62;68.34;100317.25;5050079;28;20472;-76
2022/07/14 00:23:45;;;;;;;17.38;4.32;;;;;;;19.65;68.12;100300.06;5050636;28;20048;-76
2022/07/14 00:26:11;;;;;;;7.13;3.40;;;;;;;19.72;68.28;100289.38;5049112;28;20056;-78
2022/07/14 00:28:36;;;;;;;10.20;4.55;;;;;;;19.64;68.32;100293.72;5050006;28;20041;-78
2022/07/14 00:31:09;;;;;;;8.15;5.60;;;;;;;19.48;68.77;100293.25;5051581;28;20481;-89
2022/07/14 00:33:35;;;;;;;17.03;4.17;;;;;;;19.64;68.67;100296.47;5053685;28;20033;-90
2022/07/14 00:36:01;;;;;;;11.68;4.97;;;;;;;19.52;68.36;100307.25;5053408;28;20364;-90
2022/07/14 00:38:26;;;;;;;13.68;4.50;;;;;;;19.71;67.75;100299.59;5049777;28;20037;-90
2022/07/14 00:40:52;;;;;;;9.43;3.78;;;;;;;19.65;68.05;100298.09;5053361;28;20082;-76
2022/07/14 00:43:17;;;;;;;9.23;4.30;;;;;;;19.54;68.01;100299.47;5049625;28;20040;-76
2022/07/14 00:45:43;;;;;;;11.32;4.20;;;;;;;19.56;68.09;100305.50;5049665;28;20134;-76
2022/07/14 00:48:08;;;;;;;15.60;4.47;;;;;;;19.51;68.51;100283.50;5048619;28;20115;-75
2022/07/14 00:50:34;;;;;;;12.73;3.92;;;;;;;19.52;68.30;100279.63;5047411;28;20044;-78
2022/07/14 00:53:06;;;;;;;10.48;3.70;;;;;;;19.62;67.25;100278.56;5049432;28;20033;-78
2022/07/14 00:55:31;;;;;;;18.95;4.32;;;;;;;19.42;68.21;100280.69;5049029;28;20052;-77
2022/07/14 00:57:56;;;;;;;13.73;4.00;;;;;;;19.56;67.62;100275.09;5049258;28;20472;-77
2022/07/14 01:00:22;;;;;;;9.65;3.08;;;;;;;19.50;67.81;100279.94;5048614;28;20040;-78
2022/07/14 01:02:47;;;;;;;8.27;3.55;;;;;;;19.46;68.38;100282.53;5049284;28;20079;-78
2022/07/14 01:05:13;;;;;;;15.88;3.97;;;;;;;19.53;67.79;100281.22;5048722;28;20050;-78
2022/07/14 01:07:38;;;;;;;16.88;5.03;;;;;;;19.13;69.28;100283.50;5050117;28;20461;-78
2022/07/14 01:10:04;;;;;;;10.40;3.42;;;;;;;19.14;68.91;100292.63;5053091;28;20037;-78
2022/07/14 01:12:31;;;;;;;11.38;4.20;;;;;;;18.92;70.14;100302.44;5055506;28;20087;-81
2022/07/14 01:14:57;;;;;;;13.23;3.72;;;;;;;18.84;70.81;100305.94;5054160;28;20094;-81
2022/07/14 01:17:22;;;;;;;16.83;5.13;;;;;;;18.97;70.07;100302.34;5052728;28;20032;-76
2022/07/14 01:19:48;;;;;;;10.10;3.90;;;;;;;18.85;70.61;100291.00;5052414;28;20033;-75
2022/07/14 01:22:13;;;;;;;14.60;4.10;;;;;;;18.72;71.10;100285.19;5071424;28;20529;-86
2022/07/14 01:24:39;;;;;;;7.85;4.53;;;;;;;18.80;70.87;100291.91;5055541;28;20120;-85
2022/07/14 01:27:05;;;;;;;17.52;4.10;;;;;;;18.82;70.66;100286.91;5052310;28;20709;-76
2022/07/14 01:29:30;;;;;;;13.87;4.17;;;;;;;18.84;70.36;100294.88;5052144;28;20056;-76
2022/07/14 01:31:56;;;;;;;15.50;4.88;;;;;;;18.69;70.83;100299.63;5049526;28;20329;-76
2022/07/14 01:34:21;;;;;;;11.23;3.90;;;;;;;18.58;71.12;100299.00;5052584;28;20029;-75
2022/07/14 01:36:49;;;;;;;8.63;3.13;;;;;;;18.64;70.89;100291.41;5053954;28;20025;-85
2022/07/14 01:39:14;;;;;;;11.55;3.78;;;;;;;18.56;70.77;100287.44;5057027;28;20799;-85
2022/07/14 01:41:40;;;;;;;15.48;4.97;;;;;;;18.51;71.25;100285.59;5055162;28;20026;-78
2022/07/14 01:44:05;;;;;;;23.58;4.38;;;;;;;18.35;71.61;100279.53;5052414;28;20025;-80
2022/07/14 01:46:30;;;;;;;17.95;5.68;;;;;;;18.50;71.01;100285.91;5053762;28;20163;-85
2022/07/14 01:48:55;;;;;;;11.87;3.87;;;;;;;18.55;70.81;100286.59;5048358;28;20049;-84
2022/07/14 01:51:21;;;;;;;11.98;3.83;;;;;;;18.33;71.96;100290.06;5056871;28;20625;-91
2022/07/14 01:53:47;;;;;;;18.23;4.45;;;;;;;18.26;71.99;100293.25;5056544;28;20480;-90
2022/07/14 01:56:13;;;;;;;13.63;4.20;;;;;;;18.27;72.08;100289.34;5053425;28;20458;-76
2022/07/14 01:58:39;;;;;;;14.90;3.57;;;;;;;18.31;72.08;100298.66;5051508;28;20065;-75
2022/07/14 02:03:53;;;;;;;10.65;3.97;;;;;;;18.12;72.68;100282.16;5052239;28;20048;-77
2022/07/14 02:06:18;;;;;;;15.60;4.73;;;;;;;18.15;72.92;100291.75;5050339;28;20029;-76
2022/07/14 02:08:44;;;;;;;9.57;3.80;;;;;;;18.16;72.73;100296.16;5052292;28;20724;-76
2022/07/14 02:13:52;;;;;;;23.45;4.07;;;;;;;18.21;72.54;100293.31;5051205;28;20296;-76
2022/07/14 02:16:18;;;;;;;9.60;3.37;;;;;;;18.09;72.74;100305.63;5049170;28;20115;-78
2022/07/14 02:18:43;;;;;;;12.80;4.43;;;;;;;18.18;72.72;100303.00;5049898;28;20028;-78
2022/07/14 02:21:09;;;;;;;9.48;3.15;;;;;;;18.03;72.88;100300.50;5052544;28;20269;-78
2022/07/14 02:23:34;;;;;;;17.35;3.60;;;;;;;18.02;73.15;100298.88;5051747;28;20028;-78
2022/07/14 02:26:00;;;;;;;14.30;4.27;;;;;;;18.07;72.96;100301.53;5052340;28;20032;-89
2022/07/14 02:28:25;;;;;;;16.87;4.33;;;;;;;18.06;72.94;100300.72;5055116;28;20327;-90
2022/07/14 02:30:51;;;;;;;12.17;3.23;;;;;;;18.00;73.21;100296.41;5056166;28;20768;-85
2022/07/14 02:33:16;;;;;;;13.18;4.50;;;;;;;18.07;73.15;100293.25;5056263;28;20338;-85
2022/07/14 02:35:42;;;;;;;15.80;5.82;;;;;;;18.12;72.68;100281.31;5056233;28;20036;-90
2022/07/14 02:38:07;;;;;;;17.10;3.60;;;;;;;18.05;72.85;100274.25;5055059;28;20530;-90
2022/07/14 02:40:32;;;;;;;14.97;4.40;;;;;;;18.05;73.05;100267.91;5053623;28;20472;-79
2022/07/14 02:42:57;;;;;;;11.45;4.05;;;;;;;18.08;72.53;100272.84;5051584;28;20246;-78
2022/07/14 02:45:23;;;;;;;12.77;5.10;;;;;;;18.29;71.75;100273.31;5051242;28;20633;-76
2022/07/14 02:47:48;;;;;;;11.63;4.43;;;;;;;18.40;71.34;100270.34;5051352;28;20254;-76
2022/07/14 02:50:13;;;;;;;14.77;4.90;;;;;;;18.29;71.51;100281.59;5051388;28;20718;-77
2022/07/14 02:52:39;;;;;;;17.83;4.73;;;;;;;18.33;72.00;100270.75;5053166;28;20304;-95
2022/07/14 02:55:06;;;;;;;12.65;4.13;;;;;;;18.44;71.44;100276.91;5055013;28;20276;-95
2022/07/14 02:57:31;;;;;;;12.30;3.90;;;;;;;18.28;72.13;100271.69;5054857;28;20039;-75
2022/07/14 02:59:57;;;;;;;24.85;4.78;;;;;;;18.45;71.53;100274.97;5050633;28;20464;-75
2022/07/14 03:02:22;;;;;;;15.13;3.95;;;;;;;18.41;71.70;100280.25;5051307;28;20037;-78
2022/07/14 03:04:47;;;;;;;15.50;3.63;;;;;;;18.29;71.84;100286.28;5051652;28;20036;-78
2022/07/14 03:07:13;;;;;;;9.65;3.50;;;;;;;18.09;72.66;100286.31;5051432;28;20309;-81
2022/07/14 03:09:38;;;;;;;18.33;5.40;;;;;;;17.94;73.64;100281.09;5053559;28;20035;-82
2022/07/14 03:12:04;;;;;;;19.40;3.58;;;;;;;18.03;73.54;100281.19;5052610;28;20090;-81
2022/07/14 03:14:29;;;;;;;12.65;3.78;;;;;;;18.05;73.51;100277.03;5053251;28;20632;-81
2022/07/14 03:16:54;;;;;;;10.88;3.72;;;;;;;18.12;73.07;100275.81;5053366;28;20053;-82
2022/07/14 03:19:20;;;;;;;17.15;4.60;;;;;;;18.16;72.65;100288.69;5055210;28;20032;-90
2022/07/14 03:21:45;;;;;;;13.20;4.30;;;;;;;18.02;73.24;100277.63;5055287;28;20025;-90
2022/07/14 03:24:10;;;;;;;9.57;4.00;;;;;;;18.04;73.27;100286.41;5051603;28;20265;-77
2022/07/14 03:26:36;;;;;;;14.47;3.90;;;;;;;18.09;72.68;100289.09;5050202;28;20273;-77
2022/07/14 03:29:02;;;;;;;23.65;4.22;;;;;;;17.87;73.75;100291.69;5050324;28;20286;-77
2022/07/14 03:31:27;;;;;;;22.63;4.80;;;;;;;17.81;74.32;100291.78;5050722;28;20179;-78
2022/07/14 03:33:53;;;;;;;28.45;5.97;;;;;;;17.69;75.32;100305.19;5051260;28;20092;-81
2022/07/14 03:36:20;;;;;;;22.13;4.28;;;;;;;17.85;74.41;100301.09;5051769;28;20460;-81
2022/07/14 03:38:46;;;;;;;14.32;3.78;;;;;;;17.90;74.07;100291.88;5054555;28;20032;-96
2022/07/14 03:41:11;;;;;;;21.75;5.90;;;;;;;17.84;74.63;100296.66;5054437;28;20032;-96
2022/07/14 03:43:36;;;;;;;22.83;4.25;;;;;;;17.83;73.82;100302.50;5053815;28;20040;-82
2022/07/14 03:46:02;;;;;;;13.00;4.18;;;;;;;17.65;74.79;100304.16;5051502;28;20028;-81
2022/07/14 03:48:28;;;;;;;17.10;4.70;;;;;;;17.85;73.51;100289.22;5053782;28;20594;-85
2022/07/14 03:50:53;;;;;;;13.48;3.80;;;;;;;17.98;72.93;100282.09;5055889;28;20036;-85
2022/07/14 03:53:18;;;;;;;24.15;4.90;;;;;;;18.11;72.12;100265.88;5052499;28;20155;-77
2022/07/14 03:55:44;;;;;;;15.77;5.60;;;;;;;18.05;72.46;100260.47;5049675;28;20037;-77
2022/07/14 03:58:09;;;;;;;17.23;3.97;;;;;;;17.92;72.91;100255.75;5052291;28;20663;-95
2022/07/14 04:00:35;;;;;;;9.88;4.30;;;;;;;17.79;73.52;100266.44;5054390;28;20029;-94
2022/07/14 04:03:00;;;;;;;17.83;5.55;;;;;;;17.83;73.81;100261.97;5054944;28;20491;-95
2022/07/14 04:05:26;;;;;;;19.05;4.47;;;;;;;17.96;72.61;100257.56;5054597;28;20029;-95
2022/07/14 04:07:51;;;;;;;29.20;4.55;;;;;;;18.19;71.69;100254.19;5053495;28;20090;-76
2022/07/14 04:10:17;;;;;;;10.57;3.58;;;;;;;17.89;72.64;100261.84;5049894;28;20420;-76
2022/07/14 04:12:43;;;;;;;14.15;4.72;;;;;;;17.73;73.06;100253.84;5050487;28;20037;-82
2022/07/14 04:15:09;;;;;;;13.15;4.03;;;;;;;17.78;73.21;100239.16;5051811;28;20063;-81
2022/07/14 04:17:34;;;;;;;11.25;4.50;;;;;;;17.90;72.89;100242.25;5052415;28;20418;-76
2022/07/14 04:19:59;;;;;;;20.17;4.45;;;;;;;17.92;72.38;100248.28;5049668;28;20064;-76
2022/07/14 04:22:25;;;;;;;18.27;4.93;;;;;;;17.78;72.75;100255.69;5049754;28;20060;-79
2022/07/14 04:24:50;;;;;;;15.05;4.15;;;;;;;17.67;73.35;100255.88;5049481;28;20269;-78
2022/07/14 04:27:16;;;;;;;32.10;5.63;;;;;;;17.82;72.74;100249.28;5049515;28;20025;-78
2022/07/14 04:29:41;;;;;;;10.52;3.97;;;;;;;17.93;72.29;100252.69;5049687;28;20257;-79
2022/07/14 04:32:07;;;;;;;9.60;3.97;;;;;;;17.88;72.45;100260.22;5050364;28;20040;-78
2022/07/14 04:34:34;;;;;;;28.92;4.80;;;;;;;17.80;72.63;100276.31;5049856;28;20273;-78
2022/07/14 04:37:00;;;;;;;24.80;5.60;;;;;;;17.98;71.63;100271.06;5049765;28;20484;-77
2022/07/14 04:39:25;;;;;;;11.40;4.78;;;;;;;18.02;71.85;100266.56;5053331;28;20072;-85
2022/07/14 04:41:50;;;;;;;16.80;4.40;;;;;;;17.81;72.77;100272.47;5053069;28;20029;-85
2022/07/14 04:44:15;;;;;;;13.63;5.18;;;;;;;17.68;73.42;100278.72;5053257;28;20047;-85
2022/07/14 04:46:41;;;;;;;15.53;5.37;;;;;;;17.67;73.11;100268.84;5053125;28;20391;-85
2022/07/14 04:52:02;;;;;;;;;;;;;;;17.55;73.50;100285.84;5051914;28;20257;-95
2022/07/14 04:54:28;;;;;;;20.77;5.88;;;;;;;17.64;73.47;100283.22;5050746;28;19915;-95
2022/07/14 04:56:54;;;;;;;11.13;3.35;;;;;;;17.66;73.19;100276.28;5050952;28;20087;-96
2022/07/14 04:59:19;;;;;;;18.48;3.67;;;;;;;17.89;72.16;100275.66;5048893;28;20640;-76
2022/07/14 05:01:44;;;;;;;15.68;5.63;;;;;;;17.91;72.36;100276.16;5049192;28;20068;-76
2022/07/14 05:04:10;;;;;;;15.43;3.57;;;;;;;18.12;71.46;100275.81;5049746;28;20029;-77
2022/07/14 05:06:35;;;;;;;14.48;4.28;;;;;;;18.20;71.29;100277.91;5048851;28;20278;-77
2022/07/14 05:09:01;;;;;;;16.98;5.50;;;;;;;18.23;70.76;100282.78;5051758;28;20487;-82
2022/07/14 05:11:26;;;;;;;15.40;3.65;;;;;;;17.96;71.51;100287.09;5052129;28;20029;-82
2022/07/14 05:13:54;;;;;;;20.13;4.65;;;;;;;17.88;71.34;100283.09;5051821;28;20032;-82
2022/07/14 05:16:20;;;;;;;8.38;2.90;;;;;;;17.76;71.50;100280.81;5051663;28;20432;-82
2022/07/14 05:18:46;;;;;;;22.17;6.80;;;;;;;17.87;71.70;100281.47;5050008;28;20117;-78
2022/07/14 05:21:11;;;;;;;13.38;4.63;;;;;;;17.97;71.58;100270.25;5049381;28;20044;-78
2022/07/14 05:23:36;;;;;;;18.13;6.53;;;;;;;17.74;71.98;100274.78;5049493;28;20447;-78
2022/07/14 05:26:02;;;;;;;25.53;5.43;;;;;;;17.84;71.94;100274.59;5049031;28;20254;-77
2022/07/14 05:28:27;;;;;;;17.35;3.50;;;;;;;17.89;71.49;100279.22;5048668;28;20288;-78
2022/07/14 05:30:57;;;;;;;13.77;4.37;;;;;;;17.90;71.36;100269.81;5049189;28;20060;-78
2022/07/14 05:33:22;;;;;;;20.65;5.88;;;;;;;17.93;71.16;100279.44;5049762;28;20256;-75
2022/07/14 05:35:48;;;;;;;37.33;5.38;;;;;;;17.79;71.78;100273.88;5048599;28;20119;-75
2022/07/14 05:38:13;;;;;;;16.63;4.37;;;;;;;17.46;73.15;100278.25;5049183;28;20040;-77
2022/07/14 05:40:38;;;;;;;19.43;5.03;;;;;;;17.55;73.29;100275.66;5048751;28;20357;-77
2022/07/14 05:43:03;;;;;;;18.33;4.20;;;;;;;17.57;72.89;100273.41;5050544;28;20275;-85
2022/07/14 05:45:29;;;;;;;13.90;4.93;;;;;;;17.83;71.98;100274.91;5052964;28;20672;-85
2022/07/14 05:47:54;;;;;;;20.17;4.82;;;;;;;17.91;71.07;100265.97;5053250;28;20480;-94
2022/07/14 05:50:19;;;;;;;16.02;6.10;;;;;;;18.01;70.87;100264.94;5053215;28;20502;-96
2022/07/14 05:52:45;;;;;;;10.77;4.30;;;;;;;18.12;70.31;100270.28;5052306;28;20070;-78
2022/07/14 05:55:10;;;;;;;10.53;3.70;;;;;;;17.84;71.04;100268.25;5050524;28;20621;-78
2022/07/14 05:57:36;;;;;;;14.48;5.18;;;;;;;17.59;72.38;100276.66;5052871;28;20258;-77
2022/07/14 06:00:01;;;;;;;19.08;5.80;;;;;;;17.93;71.54;100276.69;5051859;28;20174;-77
2022/07/14 06:02:26;;;;;;;15.70;4.07;;;;;;;18.12;71.06;100275.81;5051960;28;20040;-77
2022/07/14 06:04:51;;;;;;;19.05;4.53;;;;;;;18.06;70.87;100277.84;5051642;28;20745;-76
2022/07/14 06:07:17;;;;;;;18.33;4.67;;;;;;;18.11;70.58;100271.41;5052817;28;20094;-85
2022/07/14 06:09:42;;;;;;;12.82;4.15;;;;;;;18.18;70.89;100275.41;5056542;28;20266;-85
2022/07/14 06:12:09;;;;;;;15.53;4.93;;;;;;;17.74;71.82;100283.03;5056568;28;20037;-94
2022/07/14 06:14:35;;;;;;;29.08;6.40;;;;;;;17.94;71.58;100287.41;5056388;28;20975;-95
2022/07/14 06:17:00;;;;;;;12.85;5.30;;;;;;;18.27;70.55;100283.81;5056463;28;20037;-95
2022/07/14 06:19:25;;;;;;;11.23;5.47;;;;;;;18.53;69.67;100291.63;5056363;28;20029;-85
2022/07/14 06:21:51;;;;;;;12.40;5.07;;;;;;;18.83;69.23;100294.09;5056267;28;20055;-85
2022/07/14 06:24:16;;;;;;;17.20;5.10;;;;;;;18.86;67.84;100296.22;5056477;28;20254;-91
2022/07/14 06:26:42;;;;;;;22.17;4.05;;;;;;;18.44;69.48;100298.97;5056083;28;20063;-90
2022/07/14 06:29:08;;;;;;;32.63;6.63;;;;;;;18.41;69.27;100299.56;5056159;28;20118;-90
2022/07/14 06:31:35;;;;;;;14.90;4.38;;;;;;;18.27;70.49;100300.38;5056218;28;20037;-91
2022/07/14 06:34:01;;;;;;;12.77;4.05;;;;;;;18.25;70.13;100304.56;5056413;28;20083;-96
2022/07/14 06:36:27;;;;;;;21.73;5.57;;;;;;;18.51;69.71;100293.88;5055542;28;20033;-95
2022/07/14 06:38:52;;;;;;;31.23;6.20;;;;;;;18.35;69.86;100290.56;5056027;28;20091;-96
2022/07/14 06:41:20;;;;;;;21.80;4.38;;;;;;;18.36;69.57;100277.59;5056395;28;20024;-95
2022/07/14 06:43:45;;;;;;;16.85;5.57;;;;;;;18.44;69.94;100279.66;5055755;28;20037;-84
2022/07/14 06:46:14;;;;;;;17.60;4.68;;;;;;;18.65;68.49;100277.28;5063631;28;20025;-85
2022/07/14 06:48:40;;;;;;;24.45;5.75;;;;;;;18.88;68.01;100282.09;5075273;28;20116;-85
2022/07/14 06:51:05;;;;;;;21.83;6.57;;;;;;;18.91;67.90;100289.78;5074189;28;20120;-85
2022/07/14 06:53:31;;;;;;;14.70;4.88;;;;;;;18.76;67.95;100296.41;5073104;28;20028;-82
2022/07/14 06:55:56;;;;;;;15.63;4.10;;;;;;;18.45;69.41;100292.31;5059580;28;20041;-82
2022/07/14 06:58:21;;;;;;;16.60;4.28;;;;;;;18.79;67.83;100290.31;5051570;28;20060;-76
2022/07/14 07:00:47;;;;;;;13.77;3.77;;;;;;;18.61;68.21;100290.06;5050868;28;20051;-76
2022/07/14 07:03:12;;;;;;;17.13;5.35;;;;;;;19.05;66.77;100283.41;5051210;28;20792;-76
2022/07/14 07:08:23;;;;;;;11.70;4.20;;;;;;;19.09;66.47;100290.78;5051313;28;20783;-76
2022/07/14 07:10:49;;;;;;;15.45;5.40;;;;;;;18.78;67.08;100281.19;5050728;28;20033;-76
2022/07/14 07:13:14;;;;;;;33.95;5.78;;;;;;;19.05;67.00;100277.88;5050744;28;20031;-78
2022/07/14 07:15:39;;;;;;;12.10;3.70;;;;;;;19.51;65.87;100276.03;5050749;28;20025;-78
2022/07/14 07:18:06;;;;;;;35.67;5.50;;;;;;;19.48;65.00;100276.66;5051573;28;20100;-85
2022/07/14 07:20:33;;;;;;;12.27;4.28;;;;;;;19.31;65.67;100274.56;5053521;28;20274;-85
2022/07/14 07:22:59;;;;;;;14.07;3.97;;;;;;;19.28;65.07;100275.19;5054642;28;20029;-77
2022/07/14 07:25:25;;;;;;;15.65;4.13;;;;;;;19.57;64.85;100282.25;5050469;28;20040;-78
2022/07/14 07:27:50;;;;;;;17.23;3.30;;;;;;;19.90;64.43;100282.00;5050935;28;20056;-78
2022/07/14 07:30:15;;;;;;;13.00;4.40;;;;;;;19.57;64.47;100277.53;5050474;28;20258;-77
2022/07/14 07:32:40;;;;;;;17.83;4.93;;;;;;;19.55;64.31;100278.97;5052104;28;20333;-92
2022/07/14 07:35:06;;;;;;;17.70;4.20;;;;;;;19.68;64.62;100277.28;5055594;28;20266;-91
2022/07/14 07:37:31;;;;;;;19.25;5.70;;;;;;;19.81;64.30;100278.38;5054352;28;20094;-82
2022/07/14 07:39:58;;;;;;;10.00;4.78;;;;;;;19.88;64.11;100284.25;5053689;28;20029;-83
2022/07/14 07:42:25;;;;;;;28.05;4.57;;;;;;;19.66;64.13;100283.16;5053576;28;20081;-83
2022/07/14 07:44:50;;;;;;;16.52;4.40;;;;;;;19.80;63.62;100293.31;5051900;28;20021;-82
2022/07/14 07:47:15;;;;;;;17.60;5.57;;;;;;;19.75;64.43;100283.19;5052858;28;20029;-76
2022/07/14 07:49:41;;;;;;;10.87;3.83;;;;;;;20.01;63.67;100278.97;5049604;28;20116;-76
2022/07/14 07:52:06;;;;;;;14.85;4.18;;;;;;;20.28;62.66;100274.41;5049497;28;20258;-76
2022/07/14 07:54:32;;;;;;;13.23;6.28;;;;;;;20.29;61.88;100271.34;5053497;28;20100;-93
2022/07/14 07:56:59;;;;;;;14.32;5.15;;;;;;;20.24;62.18;100278.97;5053787;28;20040;-92
2022/07/14 07:59:26;;;;;;;13.93;5.18;;;;;;;20.52;60.75;100264.91;5053947;28;20108;-91
2022/07/14 08:01:51;;;;;;;15.85;5.15;;;;;;;20.29;61.30;100267.75;5052908;28;20033;-91
2022/07/14 08:04:16;;;;;;;14.25;4.72;;;;;;;19.85;61.84;100271.06;5050772;28;20136;-76
2022/07/14 08:06:42;;;;;;;13.63;5.00;;;;;;;19.28;62.94;100267.72;5049295;28;20056;-76
2022/07/14 08:09:12;;;;;;;12.00;4.70;;;;;;;19.37;64.40;100256.72;5049919;28;20748;-78
2022/07/14 08:11:42;;;;;;;16.15;6.10;;;;;;;19.67;63.17;100259.09;5050306;28;20032;-79
2022/07/14 08:14:47;;;;;;;14.25;5.40;;;;;;;19.82;62.47;100255.09;5052862;28;20043;-83
2022/07/14 08:16:56;;;;;;;15.57;5.70;;;;;;;19.17;61.85;100247.78;5051260;28;20033;-84
2022/07/14 08:19:21;;;;;;;14.20;4.13;;;;;;;19.18;63.27;100256.91;5049325;28;20108;-76
2022/07/14 08:21:46;;;;;;;18.88;5.22;;;;;;;19.32;62.14;100254.09;5049256;28;20096;-76
2022/07/14 08:24:12;;;;;;;8.05;4.63;;;;;;;19.37;61.43;100251.19;5054113;28;20036;-94
2022/07/14 08:26:37;;;;;;;9.30;3.83;;;;;;;19.33;61.66;100250.19;5054057;28;20037;-95
2022/07/14 08:29:02;;;;;;;9.83;4.20;;;;;;;19.41;62.03;100241.16;5049624;28;20060;-77
2022/07/14 08:31:27;;;;;;;9.77;4.43;;;;;;;19.55;61.15;100241.09;5049228;28;21041;-78
2022/07/14 08:33:53;;;;;;;17.77;4.88;;;;;;;20.32;59.66;100242.19;5049511;28;20301;-79
2022/07/14 08:36:18;;;;;;;13.87;4.13;;;;;;;19.93;59.44;100242.63;5048389;28;20096;-77
2022/07/14 08:38:43;;;;;;;10.03;4.30;;;;;;;20.04;59.98;100234.06;5052332;28;20767;-84
2022/07/14 08:41:10;;;;;;;12.60;4.95;;;;;;;20.44;59.26;100235.25;5053280;28;20254;-85
2022/07/14 08:43:36;;;;;;;12.93;3.90;;;;;;;20.51;56.48;100230.03;5053701;28;20040;-94
2022/07/14 08:46:04;;;;;;;9.10;2.95;;;;;;;20.22;56.06;100223.13;5054526;28;20037;-95
2022/07/14 08:48:29;;;;;;;7.18;4.28;;;;;;;20.61;56.23;100220.59;5053923;28;20044;-85
2022/07/14 08:50:56;;;;;;;14.05;3.78;;;;;;;20.85;56.54;100213.81;5053223;28;20029;-85
2022/07/14 08:53:23;;;;;;;15.13;4.07;;;;;;;21.22;55.94;100213.53;5051318;28;20029;-76
2022/07/14 08:55:49;;;;;;;9.45;3.00;;;;;;;21.31;54.76;100205.22;5048671;28;20044;-77
2022/07/14 08:58:14;;;;;;;10.90;3.88;;;;;;;20.76;54.00;100208.28;5048186;28;20037;-78
2022/07/14 09:00:40;;;;;;;7.43;3.37;;;;;;;20.72;53.66;100204.50;5047734;28;20032;-77
2022/07/14 09:03:05;;;;;;;26.67;6.28;;;;;;;20.50;54.24;100200.72;5051153;28;20756;-93
2022/07/14 09:05:31;;;;;;;11.80;3.72;;;;;;;20.72;54.92;100207.28;5052750;28;20025;-93
2022/07/14 09:07:57;;;;;;;13.48;3.22;;;;;;;20.90;53.53;100215.59;5051267;28;20175;-78
2022/07/14 09:10:28;;;;;;;9.77;3.38;;;;;;;20.71;53.67;100219.50;5046680;28;20029;-77
2022/07/14 09:13:17;;;;;;;17.42;3.55;;;;;;;21.18;52.67;100212.56;5050493;28;20044;-88
2022/07/14 09:15:46;;;;;;;10.35;3.63;;;;;;;21.61;51.83;100216.44;5052480;28;20040;-88
2022/07/14 09:18:28;;;;;;;9.52;3.53;;;;;;;21.86;51.61;100211.19;5053135;28;20039;-91
2022/07/14 09:20:55;;;;;;;9.70;4.00;;;;;;;22.16;50.23;100208.47;5053971;28;20028;-91
2022/07/14 09:23:33;;;;;;;8.77;3.63;;;;;;;22.12;47.77;100201.13;5053664;28;20075;-91
2022/07/14 09:26:15;;;;;;;8.77;2.38;;;;;;;21.84;47.97;100201.56;5053259;28;20086;-92
2022/07/14 09:28:45;;;;;;;7.00;2.70;;;;;;;21.92;47.69;100200.72;5054725;28;20049;-92
2022/07/14 09:31:18;;;;;;;8.50;3.03;;;;;;;22.04;44.74;100206.41;5057125;28;20037;-91
2022/07/14 09:33:44;;;;;;;7.88;3.03;;;;;;;21.85;41.87;100208.72;5054463;28;20032;-77
2022/07/14 09:36:20;;;;;;;3.95;1.50;;;;;;;22.08;41.64;100211.25;5048597;28;20036;-77
2022/07/14 09:38:45;;;;;;;13.95;2.92;;;;;;;22.19;41.85;100208.94;5052134;28;20098;-79
2022/07/14 09:41:11;;;;;;;8.95;3.45;;;;;;;22.07;42.48;100207.66;5052948;28;20029;-80
2022/07/14 09:43:36;;;;;;;5.95;2.15;;;;;;;22.24;42.45;100205.97;5052652;28;20036;-77
2022/07/14 09:46:01;;;;;;;7.90;1.87;;;;;;;22.48;40.88;100205.34;5052088;28;20033;-77
2022/07/14 09:48:27;;;;;;;7.57;2.05;;;;;;;22.63;41.66;100197.59;5052643;28;20264;-77
2022/07/14 09:50:55;;;;;;;7.17;2.77;;;;;;;22.39;43.38;100201.81;5052114;28;20487;-76
2022/07/14 09:53:31;;;;;;;5.55;1.75;;;;;;;22.61;44.21;100208.22;5051996;28;20119;-77
2022/07/14 09:55:59;;;;;;;7.07;2.45;;;;;;;22.15;44.56;100206.81;5051934;28;20374;-77
2022/07/14 09:58:28;;;;;;;7.80;2.22;;;;;;;22.24;43.94;100209.56;5054747;28;20043;-95
2022/07/14 10:00:59;;;;;;;7.63;3.00;;;;;;;22.24;42.97;100201.25;5056463;28;20029;-96
2022/07/14 10:03:27;;;;;;;6.70;1.77;;;;;;;22.65;43.55;100202.81;5056274;28;20029;-95
2022/07/14 10:05:54;;;;;;;5.70;2.63;;;;;;;23.03;42.86;100201.91;5055759;28;20036;-95
2022/07/14 10:08:23;;;;;;;5.63;2.05;;;;;;;23.43;41.58;100203.34;5056036;28;20579;-96
2022/07/14 10:10:49;;;;;;;5.13;1.10;;;;;;;23.71;39.05;100198.38;5053915;28;20029;-96
2022/07/14 10:13:16;;;;;;;5.53;1.63;;;;;;;23.58;39.59;100187.19;5052630;28;20033;-95
2022/07/14 10:15:41;;;;;;;5.03;1.25;;;;;;;23.05;38.63;100193.22;5055467;28;20428;-94
2022/07/14 10:18:07;;;;;;;6.32;1.73;;;;;;;22.63;39.20;100194.81;5043791;28;20041;-77
2022/07/14 10:20:33;;;;;;;7.50;1.38;;;;;;;22.78;39.40;100195.41;5051193;28;20040;-77
2022/07/14 10:23:02;;;;;;;7.80;2.05;;;;;;;23.56;39.25;100195.06;5053429;28;20021;-93
2022/07/14 10:25:28;;;;;;;9.18;1.60;;;;;;;23.66;38.07;100194.66;5056035;28;20033;-89
2022/07/14 10:27:54;;;;;;;8.38;1.88;;;;;;;23.97;37.39;100191.69;5055797;28;20057;-84
2022/07/14 10:30:28;;;;;;;3.08;1.00;;;;;;;24.13;37.50;100194.59;5050457;28;20468;-83
2022/07/14 10:33:05;;;;;;;5.38;1.15;;;;;;;24.17;36.87;100201.09;5054506;28;20124;-80
2022/07/14 10:36:01;;;;;;;8.45;1.33;;;;;;;23.92;36.04;100197.47;5052290;28;20499;-80
2022/07/14 10:38:40;;;;;;;5.97;1.58;;;;;;;24.35;34.47;100196.13;5063715;28;20029;-87
2022/07/14 10:41:24;;;;;;;5.38;1.27;;;;;;;24.88;35.44;100188.13;5074864;28;20020;-86
2022/07/14 10:44:26;;;;;;;2.92;1.25;;;;;;;25.10;34.62;100202.75;5060966;28;20041;-77
2022/07/14 10:47:06;;;;;;;6.80;1.63;;;;;;;24.87;35.20;100198.50;5016888;28;20049;-78
2022/07/14 10:50:00;;;;;;;3.00;1.02;;;;;;;24.23;36.36;100187.78;5048766;28;20041;-77
2022/07/14 10:52:30;;;;;;;4.82;1.40;;;;;;;23.87;36.85;100187.38;5051964;28;20029;-84
2022/07/14 10:55:16;;;;;;;4.32;1.42;;;;;;;24.08;36.37;100194.81;5055535;28;20110;-85
2022/07/14 10:58:04;;;;;;;5.43;1.88;;;;;;;24.13;36.01;100181.47;5054637;28;20037;-79
2022/07/14 11:00:41;;;;;;;4.28;1.05;;;;;;;24.47;37.09;100175.81;5050733;28;20512;-79
2022/07/14 11:03:22;;;;;;;3.50;1.45;;;;;;;24.79;35.16;100179.94;5051475;28;20037;-78
2022/07/14 11:06:03;;;;;;;4.05;1.20;;;;;;;24.95;35.45;100171.63;5049874;28;20044;-79
2022/07/14 11:08:29;;;;;;;4.07;1.25;;;;;;;25.29;35.41;100166.66;5051283;28;20028;-76
2022/07/14 11:10:57;;;;;;;5.88;1.20;;;;;;;25.63;34.73;100179.47;5051281;28;20419;-77
2022/07/14 11:13:22;;;;;;;6.32;0.90;;;;;;;25.32;32.49;100173.50;5052941;28;20029;-94
2022/07/14 11:15:56;;;;;;;4.10;1.33;;;;;;;25.12;33.91;100180.91;5053404;28;20044;-93
2022/07/14 11:18:28;;;;;;;10.15;1.75;;;;;;;25.59;32.81;100164.63;5051163;28;20040;-79
2022/07/14 11:21:14;;;;;;;2.80;0.75;;;;;;;25.87;33.60;100174.94;5050337;28;20075;-79
2022/07/14 11:23:48;;;;;;;3.85;1.20;;;;;;;25.79;32.07;100176.75;5051845;28;20082;-85
2022/07/14 11:26:36;;;;;;;2.03;0.90;;;;;;;25.50;32.06;100187.94;5053377;28;20112;-86
2022/07/14 11:29:04;;;;;;;5.57;1.15;;;;;;;25.16;33.06;100181.81;5054291;28;20053;-86
2022/07/14 11:31:52;;;;;;;8.82;1.05;;;;;;;25.19;33.25;100178.31;5055017;28;20037;-85